Sibu Airport Sibu MY
ICAO: WBGS
IATA:
Category: Medium
Scheduled Services:

Elevation: 122 ft
TransAlt. 11000 ft.

Airport Communications:
APP:122.6
ATIS:127.65
GND:121.9
TWR:122.6

WBGS Zoom In..

If you have problems with the map follow the link
https://www.worldairports.se/pages/airport.php?
ICAO=WBGS

Runways:

(A) RW 13 length 9006 ft width 148 ft
ILS 110.50 / hdg 129

(B) RW 31 length 9006 ft width 148 ft
---- / hdg 309

Location; WBGS
Day. 22 / Time. 06.00 Zulu
* QNH: 1009
* Temperature: 32° c. 89.6°f.
* Wind from: VRB° Speed 03 kn.
Dewpoint: 23° c.
Visibility: 10 km or more.
Clouds: Scattered 1800 ft.
Clouds: Scattered 15000 ft.
Clouds: Broken 3000 ft.

WBGS 220600Z VRB03KT 9999 SCT018 SCT150 BKN300 32/23 Q1009


Wind From VRB°
Speed 03 kn.

 
 
jpsmedia worldairports.se 2019   terms of use